sensor_id;sensor_type;location;lat;lon;timestamp;P1;durP1;ratioP1;P2;durP2;ratioP2
42364;SDS011;28498;54.400;18.566;2023-10-19T00:00:48;6.65;;;2.10;;
42364;SDS011;28498;54.400;18.566;2023-10-19T00:03:17;3.67;;;1.70;;
42364;SDS011;28498;54.400;18.566;2023-10-19T00:05:45;3.63;;;2.00;;
42364;SDS011;28498;54.400;18.566;2023-10-19T00:08:15;4.82;;;2.42;;
42364;SDS011;28498;54.400;18.566;2023-10-19T00:10:44;3.90;;;1.90;;
42364;SDS011;28498;54.400;18.566;2023-10-19T00:13:42;5.20;;;2.08;;
42364;SDS011;28498;54.400;18.566;2023-10-19T00:16:10;5.07;;;2.00;;
42364;SDS011;28498;54.400;18.566;2023-10-19T00:18:58;7.65;;;2.50;;
42364;SDS011;28498;54.400;18.566;2023-10-19T00:21:27;4.20;;;2.38;;
42364;SDS011;28498;54.400;18.566;2023-10-19T00:23:55;4.78;;;2.15;;
42364;SDS011;28498;54.400;18.566;2023-10-19T00:26:25;3.58;;;1.55;;
42364;SDS011;28498;54.400;18.566;2023-10-19T00:28:53;4.43;;;1.58;;
42364;SDS011;28498;54.400;18.566;2023-10-19T00:31:22;6.18;;;1.50;;
42364;SDS011;28498;54.400;18.566;2023-10-19T00:33:50;3.10;;;1.40;;
42364;SDS011;28498;54.400;18.566;2023-10-19T00:36:18;3.67;;;1.65;;
42364;SDS011;28498;54.400;18.566;2023-10-19T00:38:49;3.50;;;1.55;;
42364;SDS011;28498;54.400;18.566;2023-10-19T00:41:25;2.97;;;1.35;;
42364;SDS011;28498;54.400;18.566;2023-10-19T00:43:57;5.03;;;2.28;;
42364;SDS011;28498;54.400;18.566;2023-10-19T00:46:38;4.53;;;1.58;;
42364;SDS011;28498;54.400;18.566;2023-10-19T00:49:12;4.65;;;1.70;;
42364;SDS011;28498;54.400;18.566;2023-10-19T00:51:43;7.00;;;2.33;;
42364;SDS011;28498;54.400;18.566;2023-10-19T00:56:59;4.07;;;1.95;;
42364;SDS011;28498;54.400;18.566;2023-10-19T00:59:32;4.88;;;1.83;;
42364;SDS011;28498;54.400;18.566;2023-10-19T01:02:09;4.97;;;2.38;;
42364;SDS011;28498;54.400;18.566;2023-10-19T01:04:56;7.57;;;1.90;;
42364;SDS011;28498;54.400;18.566;2023-10-19T01:07:27;4.47;;;2.33;;
42364;SDS011;28498;54.400;18.566;2023-10-19T01:09:56;7.93;;;2.05;;
42364;SDS011;28498;54.400;18.566;2023-10-19T01:12:32;5.65;;;1.88;;
42364;SDS011;28498;54.400;18.566;2023-10-19T01:17:36;3.92;;;2.00;;
42364;SDS011;28498;54.400;18.566;2023-10-19T01:31:21;3.20;;;2.00;;
42364;SDS011;28498;54.400;18.566;2023-10-19T01:33:49;3.95;;;1.70;;
42364;SDS011;28498;54.400;18.566;2023-10-19T01:36:17;4.65;;;1.60;;
42364;SDS011;28498;54.400;18.566;2023-10-19T01:38:52;5.13;;;2.30;;
42364;SDS011;28498;54.400;18.566;2023-10-19T01:41:22;3.25;;;1.33;;
42364;SDS011;28498;54.400;18.566;2023-10-19T01:43:51;3.75;;;1.80;;
42364;SDS011;28498;54.400;18.566;2023-10-19T01:46:21;5.47;;;1.90;;
42364;SDS011;28498;54.400;18.566;2023-10-19T01:49:10;4.55;;;1.95;;
42364;SDS011;28498;54.400;18.566;2023-10-19T01:51:37;2.67;;;1.55;;
42364;SDS011;28498;54.400;18.566;2023-10-19T01:54:08;4.28;;;2.30;;
42364;SDS011;28498;54.400;18.566;2023-10-19T01:56:36;6.60;;;1.80;;
42364;SDS011;28498;54.400;18.566;2023-10-19T01:59:05;3.10;;;1.88;;
42364;SDS011;28498;54.400;18.566;2023-10-19T02:01:35;4.78;;;1.90;;
42364;SDS011;28498;54.400;18.566;2023-10-19T02:04:04;4.40;;;1.67;;
42364;SDS011;28498;54.400;18.566;2023-10-19T02:06:33;4.53;;;2.05;;
42364;SDS011;28498;54.400;18.566;2023-10-19T02:09:02;3.55;;;1.63;;
42364;SDS011;28498;54.400;18.566;2023-10-19T02:11:55;4.55;;;1.70;;
42364;SDS011;28498;54.400;18.566;2023-10-19T02:14:27;5.35;;;1.90;;
42364;SDS011;28498;54.400;18.566;2023-10-19T02:16:59;3.35;;;1.50;;
42364;SDS011;28498;54.400;18.566;2023-10-19T02:19:28;3.80;;;1.70;;
42364;SDS011;28498;54.400;18.566;2023-10-19T02:21:57;3.10;;;1.50;;
42364;SDS011;28498;54.400;18.566;2023-10-19T02:24:25;4.78;;;1.60;;
42364;SDS011;28498;54.400;18.566;2023-10-19T02:26:54;4.07;;;1.73;;
42364;SDS011;28498;54.400;18.566;2023-10-19T02:29:22;3.97;;;1.50;;
42364;SDS011;28498;54.400;18.566;2023-10-19T02:31:50;3.35;;;1.63;;
42364;SDS011;28498;54.400;18.566;2023-10-19T02:34:17;3.05;;;1.48;;
42364;SDS011;28498;54.400;18.566;2023-10-19T02:36:45;2.65;;;1.35;;
42364;SDS011;28498;54.400;18.566;2023-10-19T02:39:12;3.83;;;1.60;;
42364;SDS011;28498;54.400;18.566;2023-10-19T02:41:41;3.63;;;1.63;;
42364;SDS011;28498;54.400;18.566;2023-10-19T02:44:14;4.22;;;1.70;;
42364;SDS011;28498;54.400;18.566;2023-10-19T02:46:45;2.78;;;1.27;;
42364;SDS011;28498;54.400;18.566;2023-10-19T02:49:14;6.20;;;1.80;;
42364;SDS011;28498;54.400;18.566;2023-10-19T02:51:45;3.35;;;1.92;;
42364;SDS011;28498;54.400;18.566;2023-10-19T02:54:16;4.65;;;1.65;;
42364;SDS011;28498;54.400;18.566;2023-10-19T02:56:46;4.03;;;1.30;;
42364;SDS011;28498;54.400;18.566;2023-10-19T02:59:16;6.40;;;1.48;;
42364;SDS011;28498;54.400;18.566;2023-10-19T03:01:57;4.93;;;1.95;;
42364;SDS011;28498;54.400;18.566;2023-10-19T03:04:33;5.20;;;1.58;;
42364;SDS011;28498;54.400;18.566;2023-10-19T03:07:03;4.35;;;1.60;;
42364;SDS011;28498;54.400;18.566;2023-10-19T03:09:30;3.15;;;1.70;;
42364;SDS011;28498;54.400;18.566;2023-10-19T03:12:03;4.65;;;1.45;;
42364;SDS011;28498;54.400;18.566;2023-10-19T03:14:40;4.03;;;1.88;;
42364;SDS011;28498;54.400;18.566;2023-10-19T03:17:08;5.25;;;1.55;;
42364;SDS011;28498;54.400;18.566;2023-10-19T03:19:35;4.85;;;1.60;;
42364;SDS011;28498;54.400;18.566;2023-10-19T03:22:02;5.22;;;1.67;;
42364;SDS011;28498;54.400;18.566;2023-10-19T03:24:32;3.67;;;1.80;;
42364;SDS011;28498;54.400;18.566;2023-10-19T03:29:42;4.78;;;1.70;;
42364;SDS011;28498;54.400;18.566;2023-10-19T03:32:14;4.57;;;1.58;;
42364;SDS011;28498;54.400;18.566;2023-10-19T03:34:48;4.00;;;1.40;;
42364;SDS011;28498;54.400;18.566;2023-10-19T03:37:17;3.13;;;1.50;;
42364;SDS011;28498;54.400;18.566;2023-10-19T03:39:47;6.75;;;1.50;;
42364;SDS011;28498;54.400;18.566;2023-10-19T03:42:14;3.08;;;1.38;;
42364;SDS011;28498;54.400;18.566;2023-10-19T03:44:41;4.72;;;1.98;;
42364;SDS011;28498;54.400;18.566;2023-10-19T03:47:14;3.28;;;1.70;;
42364;SDS011;28498;54.400;18.566;2023-10-19T03:49:46;4.47;;;1.58;;
42364;SDS011;28498;54.400;18.566;2023-10-19T03:52:15;2.53;;;1.30;;
42364;SDS011;28498;54.400;18.566;2023-10-19T03:54:42;4.45;;;1.88;;
42364;SDS011;28498;54.400;18.566;2023-10-19T03:57:10;3.88;;;1.67;;
42364;SDS011;28498;54.400;18.566;2023-10-19T03:59:39;3.72;;;1.45;;
42364;SDS011;28498;54.400;18.566;2023-10-19T04:02:06;2.47;;;1.30;;
42364;SDS011;28498;54.400;18.566;2023-10-19T04:04:40;2.65;;;1.38;;
42364;SDS011;28498;54.400;18.566;2023-10-19T04:07:13;4.55;;;1.70;;
42364;SDS011;28498;54.400;18.566;2023-10-19T04:09:47;5.35;;;1.70;;
42364;SDS011;28498;54.400;18.566;2023-10-19T04:12:37;3.08;;;1.40;;
42364;SDS011;28498;54.400;18.566;2023-10-19T04:15:09;6.30;;;1.40;;
42364;SDS011;28498;54.400;18.566;2023-10-19T04:17:40;3.83;;;1.70;;
42364;SDS011;28498;54.400;18.566;2023-10-19T04:20:16;3.85;;;1.70;;
42364;SDS011;28498;54.400;18.566;2023-10-19T04:22:44;4.53;;;1.45;;
42364;SDS011;28498;54.400;18.566;2023-10-19T04:25:16;4.20;;;2.65;;
42364;SDS011;28498;54.400;18.566;2023-10-19T04:27:47;5.65;;;2.55;;
42364;SDS011;28498;54.400;18.566;2023-10-19T04:30:15;4.88;;;2.00;;
42364;SDS011;28498;54.400;18.566;2023-10-19T04:32:43;4.53;;;2.30;;
42364;SDS011;28498;54.400;18.566;2023-10-19T04:35:11;6.05;;;2.22;;
42364;SDS011;28498;54.400;18.566;2023-10-19T04:37:51;4.78;;;2.03;;
42364;SDS011;28498;54.400;18.566;2023-10-19T04:40:19;5.78;;;2.40;;
42364;SDS011;28498;54.400;18.566;2023-10-19T04:42:47;4.03;;;1.60;;
42364;SDS011;28498;54.400;18.566;2023-10-19T04:45:16;5.10;;;1.80;;
42364;SDS011;28498;54.400;18.566;2023-10-19T04:47:43;3.60;;;1.85;;
42364;SDS011;28498;54.400;18.566;2023-10-19T04:50:10;4.07;;;1.70;;
42364;SDS011;28498;54.400;18.566;2023-10-19T04:52:38;3.17;;;1.75;;
42364;SDS011;28498;54.400;18.566;2023-10-19T04:55:05;9.55;;;2.50;;
42364;SDS011;28498;54.400;18.566;2023-10-19T04:57:33;3.55;;;1.77;;
42364;SDS011;28498;54.400;18.566;2023-10-19T05:00:00;4.05;;;2.10;;
42364;SDS011;28498;54.400;18.566;2023-10-19T05:02:27;7.40;;;2.50;;
42364;SDS011;28498;54.400;18.566;2023-10-19T05:04:54;5.13;;;2.10;;
42364;SDS011;28498;54.400;18.566;2023-10-19T05:07:21;5.90;;;2.00;;
42364;SDS011;28498;54.400;18.566;2023-10-19T05:09:49;4.43;;;1.63;;
42364;SDS011;28498;54.400;18.566;2023-10-19T05:12:16;8.57;;;3.15;;
42364;SDS011;28498;54.400;18.566;2023-10-19T05:14:43;10.43;;;3.92;;
42364;SDS011;28498;54.400;18.566;2023-10-19T05:17:10;9.63;;;4.20;;
42364;SDS011;28498;54.400;18.566;2023-10-19T05:19:38;11.23;;;3.85;;
42364;SDS011;28498;54.400;18.566;2023-10-19T05:22:07;8.10;;;3.33;;
42364;SDS011;28498;54.400;18.566;2023-10-19T05:24:35;10.25;;;4.60;;
42364;SDS011;28498;54.400;18.566;2023-10-19T05:27:03;12.68;;;4.68;;
42364;SDS011;28498;54.400;18.566;2023-10-19T05:29:31;13.73;;;5.20;;
42364;SDS011;28498;54.400;18.566;2023-10-19T05:31:59;14.45;;;5.30;;
42364;SDS011;28498;54.400;18.566;2023-10-19T05:34:28;12.23;;;4.88;;
42364;SDS011;28498;54.400;18.566;2023-10-19T05:36:56;12.68;;;4.90;;
42364;SDS011;28498;54.400;18.566;2023-10-19T05:39:26;13.85;;;5.35;;
42364;SDS011;28498;54.400;18.566;2023-10-19T05:41:57;12.20;;;4.50;;
42364;SDS011;28498;54.400;18.566;2023-10-19T05:44:31;7.38;;;3.00;;
42364;SDS011;28498;54.400;18.566;2023-10-19T05:46:59;5.55;;;1.90;;
42364;SDS011;28498;54.400;18.566;2023-10-19T05:49:27;3.30;;;1.45;;
42364;SDS011;28498;54.400;18.566;2023-10-19T05:51:57;2.88;;;1.40;;
42364;SDS011;28498;54.400;18.566;2023-10-19T05:54:25;4.35;;;1.75;;
42364;SDS011;28498;54.400;18.566;2023-10-19T05:56:53;3.75;;;1.30;;
42364;SDS011;28498;54.400;18.566;2023-10-19T05:59:20;3.15;;;1.23;;
42364;SDS011;28498;54.400;18.566;2023-10-19T06:01:47;4.85;;;1.35;;
42364;SDS011;28498;54.400;18.566;2023-10-19T06:04:15;3.53;;;1.35;;
42364;SDS011;28498;54.400;18.566;2023-10-19T06:10:34;2.33;;;1.60;;
42364;SDS011;28498;54.400;18.566;2023-10-19T06:13:02;3.42;;;1.60;;
42364;SDS011;28498;54.400;18.566;2023-10-19T06:15:29;4.65;;;1.73;;
42364;SDS011;28498;54.400;18.566;2023-10-19T06:17:58;4.20;;;1.70;;
42364;SDS011;28498;54.400;18.566;2023-10-19T06:20:26;3.95;;;2.08;;
42364;SDS011;28498;54.400;18.566;2023-10-19T06:22:53;3.72;;;1.83;;
42364;SDS011;28498;54.400;18.566;2023-10-19T06:25:23;3.58;;;1.83;;
42364;SDS011;28498;54.400;18.566;2023-10-19T06:27:51;5.93;;;1.63;;
42364;SDS011;28498;54.400;18.566;2023-10-19T06:30:19;4.60;;;2.00;;
42364;SDS011;28498;54.400;18.566;2023-10-19T06:32:50;4.45;;;1.95;;
42364;SDS011;28498;54.400;18.566;2023-10-19T06:35:18;7.90;;;1.88;;
42364;SDS011;28498;54.400;18.566;2023-10-19T06:37:46;3.45;;;1.88;;
42364;SDS011;28498;54.400;18.566;2023-10-19T06:40:15;4.63;;;2.03;;
42364;SDS011;28498;54.400;18.566;2023-10-19T06:42:43;3.95;;;1.80;;
42364;SDS011;28498;54.400;18.566;2023-10-19T06:45:14;4.63;;;1.73;;
42364;SDS011;28498;54.400;18.566;2023-10-19T06:47:42;3.63;;;1.70;;
42364;SDS011;28498;54.400;18.566;2023-10-19T06:50:15;3.55;;;1.80;;
42364;SDS011;28498;54.400;18.566;2023-10-19T06:52:46;3.40;;;1.70;;
42364;SDS011;28498;54.400;18.566;2023-10-19T06:55:17;5.65;;;1.90;;
42364;SDS011;28498;54.400;18.566;2023-10-19T06:57:50;2.75;;;1.30;;
42364;SDS011;28498;54.400;18.566;2023-10-19T07:00:20;3.13;;;1.70;;
42364;SDS011;28498;54.400;18.566;2023-10-19T07:02:51;2.70;;;1.30;;
42364;SDS011;28498;54.400;18.566;2023-10-19T07:05:19;2.72;;;1.38;;
42364;SDS011;28498;54.400;18.566;2023-10-19T07:07:56;3.15;;;1.20;;
42364;SDS011;28498;54.400;18.566;2023-10-19T07:10:26;2.90;;;1.30;;
42364;SDS011;28498;54.400;18.566;2023-10-19T07:12:54;4.65;;;1.20;;
42364;SDS011;28498;54.400;18.566;2023-10-19T07:15:23;3.22;;;1.15;;
42364;SDS011;28498;54.400;18.566;2023-10-19T07:17:51;2.70;;;1.50;;
42364;SDS011;28498;54.400;18.566;2023-10-19T07:20:21;3.55;;;1.40;;
42364;SDS011;28498;54.400;18.566;2023-10-19T07:22:53;2.92;;;1.00;;
42364;SDS011;28498;54.400;18.566;2023-10-19T07:25:21;3.22;;;0.98;;
42364;SDS011;28498;54.400;18.566;2023-10-19T07:27:49;4.00;;;1.58;;
42364;SDS011;28498;54.400;18.566;2023-10-19T07:30:17;4.97;;;1.20;;
42364;SDS011;28498;54.400;18.566;2023-10-19T07:32:49;2.20;;;1.17;;
42364;SDS011;28498;54.400;18.566;2023-10-19T07:35:26;3.40;;;1.30;;
42364;SDS011;28498;54.400;18.566;2023-10-19T07:37:54;3.88;;;2.15;;
42364;SDS011;28498;54.400;18.566;2023-10-19T07:40:23;3.10;;;1.45;;
42364;SDS011;28498;54.400;18.566;2023-10-19T07:42:52;2.35;;;1.20;;
42364;SDS011;28498;54.400;18.566;2023-10-19T07:45:21;4.57;;;1.70;;
42364;SDS011;28498;54.400;18.566;2023-10-19T07:47:49;4.47;;;1.77;;
42364;SDS011;28498;54.400;18.566;2023-10-19T07:50:17;6.18;;;2.15;;
42364;SDS011;28498;54.400;18.566;2023-10-19T07:52:44;5.85;;;2.53;;
42364;SDS011;28498;54.400;18.566;2023-10-19T07:55:21;4.50;;;2.17;;
42364;SDS011;28498;54.400;18.566;2023-10-19T07:57:51;5.63;;;2.30;;
42364;SDS011;28498;54.400;18.566;2023-10-19T08:00:19;4.05;;;1.38;;
42364;SDS011;28498;54.400;18.566;2023-10-19T08:02:47;4.50;;;1.80;;
42364;SDS011;28498;54.400;18.566;2023-10-19T08:05:14;4.85;;;1.98;;
42364;SDS011;28498;54.400;18.566;2023-10-19T08:07:45;5.72;;;1.67;;
42364;SDS011;28498;54.400;18.566;2023-10-19T08:10:16;3.65;;;1.52;;
42364;SDS011;28498;54.400;18.566;2023-10-19T08:12:44;4.03;;;1.73;;
42364;SDS011;28498;54.400;18.566;2023-10-19T08:15:16;4.30;;;2.08;;
42364;SDS011;28498;54.400;18.566;2023-10-19T08:17:45;4.00;;;1.60;;
42364;SDS011;28498;54.400;18.566;2023-10-19T08:20:17;6.50;;;1.70;;
42364;SDS011;28498;54.400;18.566;2023-10-19T08:22:52;5.60;;;1.90;;
42364;SDS011;28498;54.400;18.566;2023-10-19T08:25:20;3.83;;;1.70;;
42364;SDS011;28498;54.400;18.566;2023-10-19T08:27:48;6.03;;;1.40;;
42364;SDS011;28498;54.400;18.566;2023-10-19T08:30:23;7.90;;;1.75;;
42364;SDS011;28498;54.400;18.566;2023-10-19T08:32:53;5.88;;;1.70;;
42364;SDS011;28498;54.400;18.566;2023-10-19T08:35:21;5.82;;;2.20;;
42364;SDS011;28498;54.400;18.566;2023-10-19T08:37:52;9.75;;;2.42;;
42364;SDS011;28498;54.400;18.566;2023-10-19T08:40:20;3.33;;;1.25;;
42364;SDS011;28498;54.400;18.566;2023-10-19T08:42:50;3.92;;;1.92;;
42364;SDS011;28498;54.400;18.566;2023-10-19T08:45:18;7.65;;;1.75;;
42364;SDS011;28498;54.400;18.566;2023-10-19T08:48:06;4.18;;;1.30;;
42364;SDS011;28498;54.400;18.566;2023-10-19T08:50:35;3.47;;;1.40;;
42364;SDS011;28498;54.400;18.566;2023-10-19T08:53:04;4.70;;;1.70;;
42364;SDS011;28498;54.400;18.566;2023-10-19T08:55:35;23.90;;;3.90;;
42364;SDS011;28498;54.400;18.566;2023-10-19T08:58:15;32.42;;;6.13;;
42364;SDS011;28498;54.400;18.566;2023-10-19T09:00:46;24.67;;;5.15;;
42364;SDS011;28498;54.400;18.566;2023-10-19T09:03:16;9.70;;;2.75;;
42364;SDS011;28498;54.400;18.566;2023-10-19T09:05:44;6.00;;;2.03;;
42364;SDS011;28498;54.400;18.566;2023-10-19T09:08:15;8.75;;;2.92;;
42364;SDS011;28498;54.400;18.566;2023-10-19T09:10:44;5.03;;;1.67;;
42364;SDS011;28498;54.400;18.566;2023-10-19T09:13:13;7.18;;;2.42;;
42364;SDS011;28498;54.400;18.566;2023-10-19T09:15:42;5.57;;;2.47;;
42364;SDS011;28498;54.400;18.566;2023-10-19T09:18:23;5.60;;;1.92;;
42364;SDS011;28498;54.400;18.566;2023-10-19T09:20:55;4.60;;;1.80;;
42364;SDS011;28498;54.400;18.566;2023-10-19T09:23:29;7.28;;;2.10;;
42364;SDS011;28498;54.400;18.566;2023-10-19T09:25:58;3.10;;;1.10;;
42364;SDS011;28498;54.400;18.566;2023-10-19T09:28:30;7.30;;;1.50;;
42364;SDS011;28498;54.400;18.566;2023-10-19T09:31:00;3.42;;;1.65;;
42364;SDS011;28498;54.400;18.566;2023-10-19T09:33:28;2.35;;;1.00;;
42364;SDS011;28498;54.400;18.566;2023-10-19T09:35:57;3.80;;;1.40;;
42364;SDS011;28498;54.400;18.566;2023-10-19T09:38:27;12.48;;;2.90;;
42364;SDS011;28498;54.400;18.566;2023-10-19T09:40:54;11.10;;;2.40;;
42364;SDS011;28498;54.400;18.566;2023-10-19T09:46:05;3.75;;;1.55;;
42364;SDS011;28498;54.400;18.566;2023-10-19T09:48:45;5.40;;;1.95;;
42364;SDS011;28498;54.400;18.566;2023-10-19T09:51:14;3.15;;;1.90;;
42364;SDS011;28498;54.400;18.566;2023-10-19T09:53:44;4.97;;;2.10;;
42364;SDS011;28498;54.400;18.566;2023-10-19T09:56:19;4.40;;;2.15;;
42364;SDS011;28498;54.400;18.566;2023-10-19T09:58:53;4.20;;;2.03;;
42364;SDS011;28498;54.400;18.566;2023-10-19T10:01:24;4.03;;;1.67;;
42364;SDS011;28498;54.400;18.566;2023-10-19T10:03:53;4.35;;;2.45;;
42364;SDS011;28498;54.400;18.566;2023-10-19T10:06:27;5.68;;;2.03;;
42364;SDS011;28498;54.400;18.566;2023-10-19T10:09:19;7.55;;;2.92;;
42364;SDS011;28498;54.400;18.566;2023-10-19T10:11:49;4.55;;;2.03;;
42364;SDS011;28498;54.400;18.566;2023-10-19T10:14:22;6.05;;;2.40;;
42364;SDS011;28498;54.400;18.566;2023-10-19T10:17:01;5.53;;;3.00;;
42364;SDS011;28498;54.400;18.566;2023-10-19T10:19:29;5.35;;;2.75;;
42364;SDS011;28498;54.400;18.566;2023-10-19T10:22:14;6.25;;;2.40;;
42364;SDS011;28498;54.400;18.566;2023-10-19T10:24:42;4.97;;;2.13;;
42364;SDS011;28498;54.400;18.566;2023-10-19T10:27:10;6.50;;;2.45;;
42364;SDS011;28498;54.400;18.566;2023-10-19T10:29:56;5.25;;;2.45;;
42364;SDS011;28498;54.400;18.566;2023-10-19T10:32:47;4.10;;;2.10;;
42364;SDS011;28498;54.400;18.566;2023-10-19T10:38:18;5.22;;;2.97;;
42364;SDS011;28498;54.400;18.566;2023-10-19T10:40:46;4.15;;;2.33;;
42364;SDS011;28498;54.400;18.566;2023-10-19T10:43:19;6.25;;;2.00;;
42364;SDS011;28498;54.400;18.566;2023-10-19T10:45:48;4.30;;;2.00;;
42364;SDS011;28498;54.400;18.566;2023-10-19T10:52:02;3.63;;;1.92;;
42364;SDS011;28498;54.400;18.566;2023-10-19T10:54:29;8.98;;;2.33;;
42364;SDS011;28498;54.400;18.566;2023-10-19T10:56:56;3.33;;;1.77;;
42364;SDS011;28498;54.400;18.566;2023-10-19T10:59:24;4.03;;;2.05;;
42364;SDS011;28498;54.400;18.566;2023-10-19T11:01:52;4.28;;;1.98;;
42364;SDS011;28498;54.400;18.566;2023-10-19T11:04:19;3.95;;;2.25;;
42364;SDS011;28498;54.400;18.566;2023-10-19T11:06:53;4.72;;;2.28;;
42364;SDS011;28498;54.400;18.566;2023-10-19T11:09:23;4.55;;;2.28;;
42364;SDS011;28498;54.400;18.566;2023-10-19T11:11:50;5.68;;;2.42;;
42364;SDS011;28498;54.400;18.566;2023-10-19T11:14:21;3.33;;;2.00;;
42364;SDS011;28498;54.400;18.566;2023-10-19T11:16:52;5.05;;;2.10;;
42364;SDS011;28498;54.400;18.566;2023-10-19T11:19:19;5.30;;;1.98;;
42364;SDS011;28498;54.400;18.566;2023-10-19T11:21:54;3.70;;;1.90;;
42364;SDS011;28498;54.400;18.566;2023-10-19T11:24:25;4.03;;;2.30;;
42364;SDS011;28498;54.400;18.566;2023-10-19T11:26:54;4.53;;;1.90;;
42364;SDS011;28498;54.400;18.566;2023-10-19T11:29:21;4.70;;;2.15;;
42364;SDS011;28498;54.400;18.566;2023-10-19T11:31:58;3.15;;;1.48;;
42364;SDS011;28498;54.400;18.566;2023-10-19T11:34:26;6.63;;;2.80;;
42364;SDS011;28498;54.400;18.566;2023-10-19T11:36:56;5.47;;;2.20;;
42364;SDS011;28498;54.400;18.566;2023-10-19T11:39:23;4.57;;;1.70;;
42364;SDS011;28498;54.400;18.566;2023-10-19T11:41:50;10.90;;;1.92;;
42364;SDS011;28498;54.400;18.566;2023-10-19T11:44:17;3.83;;;1.88;;
42364;SDS011;28498;54.400;18.566;2023-10-19T11:46:44;5.72;;;2.30;;
42364;SDS011;28498;54.400;18.566;2023-10-19T11:49:11;3.80;;;1.90;;
42364;SDS011;28498;54.400;18.566;2023-10-19T11:51:39;7.35;;;1.75;;
42364;SDS011;28498;54.400;18.566;2023-10-19T11:54:05;3.08;;;1.55;;
42364;SDS011;28498;54.400;18.566;2023-10-19T11:56:33;4.05;;;1.98;;
42364;SDS011;28498;54.400;18.566;2023-10-19T11:59:01;5.38;;;2.40;;
42364;SDS011;28498;54.400;18.566;2023-10-19T12:01:28;3.63;;;1.90;;
42364;SDS011;28498;54.400;18.566;2023-10-19T12:03:56;5.00;;;1.77;;
42364;SDS011;28498;54.400;18.566;2023-10-19T12:06:23;4.03;;;2.13;;
42364;SDS011;28498;54.400;18.566;2023-10-19T12:08:50;5.30;;;2.17;;
42364;SDS011;28498;54.400;18.566;2023-10-19T12:11:17;4.00;;;1.98;;
42364;SDS011;28498;54.400;18.566;2023-10-19T12:13:48;5.13;;;2.00;;
42364;SDS011;28498;54.400;18.566;2023-10-19T12:16:15;4.57;;;1.60;;
42364;SDS011;28498;54.400;18.566;2023-10-19T12:18:43;5.97;;;1.90;;
42364;SDS011;28498;54.400;18.566;2023-10-19T12:21:15;4.40;;;2.30;;
42364;SDS011;28498;54.400;18.566;2023-10-19T12:23:44;4.40;;;2.08;;
42364;SDS011;28498;54.400;18.566;2023-10-19T12:26:17;2.90;;;1.50;;
42364;SDS011;28498;54.400;18.566;2023-10-19T12:28:46;3.78;;;2.10;;
42364;SDS011;28498;54.400;18.566;2023-10-19T12:31:15;4.22;;;1.90;;
42364;SDS011;28498;54.400;18.566;2023-10-19T12:33:46;5.20;;;2.65;;
42364;SDS011;28498;54.400;18.566;2023-10-19T12:36:13;5.40;;;2.13;;
42364;SDS011;28498;54.400;18.566;2023-10-19T12:38:49;4.57;;;2.03;;
42364;SDS011;28498;54.400;18.566;2023-10-19T12:41:20;4.30;;;2.20;;
42364;SDS011;28498;54.400;18.566;2023-10-19T12:43:48;4.65;;;2.13;;
42364;SDS011;28498;54.400;18.566;2023-10-19T12:46:19;7.15;;;2.50;;
42364;SDS011;28498;54.400;18.566;2023-10-19T12:48:48;4.60;;;2.17;;
42364;SDS011;28498;54.400;18.566;2023-10-19T12:51:15;4.80;;;2.20;;
42364;SDS011;28498;54.400;18.566;2023-10-19T12:53:52;3.75;;;1.85;;
42364;SDS011;28498;54.400;18.566;2023-10-19T12:56:20;3.38;;;1.90;;
42364;SDS011;28498;54.400;18.566;2023-10-19T12:58:51;2.97;;;1.95;;
42364;SDS011;28498;54.400;18.566;2023-10-19T13:01:18;6.70;;;2.45;;
42364;SDS011;28498;54.400;18.566;2023-10-19T13:03:46;4.97;;;2.10;;
42364;SDS011;28498;54.400;18.566;2023-10-19T13:06:16;5.55;;;2.28;;
42364;SDS011;28498;54.400;18.566;2023-10-19T13:08:43;6.20;;;1.92;;
42364;SDS011;28498;54.400;18.566;2023-10-19T13:11:10;6.10;;;2.30;;
42364;SDS011;28498;54.400;18.566;2023-10-19T13:13:44;4.53;;;2.00;;
42364;SDS011;28498;54.400;18.566;2023-10-19T13:16:12;5.30;;;2.20;;
42364;SDS011;28498;54.400;18.566;2023-10-19T13:18:40;5.05;;;2.33;;
42364;SDS011;28498;54.400;18.566;2023-10-19T13:21:08;6.75;;;2.28;;
42364;SDS011;28498;54.400;18.566;2023-10-19T13:23:43;3.88;;;2.03;;
42364;SDS011;28498;54.400;18.566;2023-10-19T13:26:11;6.75;;;2.05;;
42364;SDS011;28498;54.400;18.566;2023-10-19T13:28:41;3.58;;;1.92;;
42364;SDS011;28498;54.400;18.566;2023-10-19T13:31:09;5.35;;;2.20;;
42364;SDS011;28498;54.400;18.566;2023-10-19T13:33:37;5.70;;;2.65;;
42364;SDS011;28498;54.400;18.566;2023-10-19T13:36:05;4.38;;;1.90;;
42364;SDS011;28498;54.400;18.566;2023-10-19T13:38:32;5.75;;;2.15;;
42364;SDS011;28498;54.400;18.566;2023-10-19T13:41:03;6.90;;;2.60;;
42364;SDS011;28498;54.400;18.566;2023-10-19T13:43:34;3.55;;;1.83;;
42364;SDS011;28498;54.400;18.566;2023-10-19T13:46:04;3.92;;;2.03;;
42364;SDS011;28498;54.400;18.566;2023-10-19T13:48:32;6.32;;;2.35;;
42364;SDS011;28498;54.400;18.566;2023-10-19T13:50:59;5.10;;;2.10;;
42364;SDS011;28498;54.400;18.566;2023-10-19T13:53:40;4.43;;;2.03;;
42364;SDS011;28498;54.400;18.566;2023-10-19T13:56:08;3.45;;;1.85;;
42364;SDS011;28498;54.400;18.566;2023-10-19T13:58:36;3.97;;;1.77;;
42364;SDS011;28498;54.400;18.566;2023-10-19T14:01:07;4.00;;;2.28;;
42364;SDS011;28498;54.400;18.566;2023-10-19T14:03:36;4.72;;;2.10;;
42364;SDS011;28498;54.400;18.566;2023-10-19T14:06:04;4.32;;;2.03;;
42364;SDS011;28498;54.400;18.566;2023-10-19T14:08:32;3.80;;;1.90;;
42364;SDS011;28498;54.400;18.566;2023-10-19T14:11:02;3.95;;;1.73;;
42364;SDS011;28498;54.400;18.566;2023-10-19T14:13:32;3.13;;;1.75;;
42364;SDS011;28498;54.400;18.566;2023-10-19T14:15:59;4.65;;;1.77;;
42364;SDS011;28498;54.400;18.566;2023-10-19T14:18:31;3.08;;;1.73;;
42364;SDS011;28498;54.400;18.566;2023-10-19T14:20:58;5.78;;;2.20;;
42364;SDS011;28498;54.400;18.566;2023-10-19T14:23:25;5.20;;;1.95;;
42364;SDS011;28498;54.400;18.566;2023-10-19T14:25:53;6.22;;;2.10;;
42364;SDS011;28498;54.400;18.566;2023-10-19T14:28:20;4.93;;;1.83;;
42364;SDS011;28498;54.400;18.566;2023-10-19T14:30:48;3.53;;;1.88;;
42364;SDS011;28498;54.400;18.566;2023-10-19T14:33:19;3.40;;;2.15;;
42364;SDS011;28498;54.400;18.566;2023-10-19T14:35:46;4.88;;;2.00;;
42364;SDS011;28498;54.400;18.566;2023-10-19T14:38:13;5.68;;;2.42;;
42364;SDS011;28498;54.400;18.566;2023-10-19T14:40:41;4.57;;;2.00;;
42364;SDS011;28498;54.400;18.566;2023-10-19T14:43:11;5.25;;;2.33;;
42364;SDS011;28498;54.400;18.566;2023-10-19T14:45:40;4.35;;;1.70;;
42364;SDS011;28498;54.400;18.566;2023-10-19T14:48:07;3.67;;;1.70;;
42364;SDS011;28498;54.400;18.566;2023-10-19T14:50:37;3.63;;;1.90;;
42364;SDS011;28498;54.400;18.566;2023-10-19T14:53:05;4.13;;;2.03;;
42364;SDS011;28498;54.400;18.566;2023-10-19T14:55:32;5.18;;;1.88;;
42364;SDS011;28498;54.400;18.566;2023-10-19T14:57:59;3.40;;;1.80;;
42364;SDS011;28498;54.400;18.566;2023-10-19T15:04:14;5.85;;;1.98;;
42364;SDS011;28498;54.400;18.566;2023-10-19T15:06:41;4.00;;;2.25;;
42364;SDS011;28498;54.400;18.566;2023-10-19T15:09:08;2.83;;;1.50;;
42364;SDS011;28498;54.400;18.566;2023-10-19T15:11:42;3.25;;;1.73;;
42364;SDS011;28498;54.400;18.566;2023-10-19T15:14:10;3.50;;;1.50;;
42364;SDS011;28498;54.400;18.566;2023-10-19T15:16:38;5.03;;;1.77;;
42364;SDS011;28498;54.400;18.566;2023-10-19T15:19:05;4.30;;;2.00;;
42364;SDS011;28498;54.400;18.566;2023-10-19T15:21:32;6.13;;;1.77;;
42364;SDS011;28498;54.400;18.566;2023-10-19T15:24:00;6.82;;;2.10;;
42364;SDS011;28498;54.400;18.566;2023-10-19T15:26:27;3.97;;;2.03;;